Time;durP1;ratioP1;P1;durP2;ratioP2;P2;SDS_P1;SDS_P2;PMS_P1;PMS_P2;Temp;Humidity;BMP_temperature;BMP_pressure;BME280_temperature;BME280_humidity;BME280_pressure;Samples;Min_cycle;Max_cycle;Signal;HPM_P1;HPM_P2
2022/10/06 00:00:52;;;;;;;2.20;0.80;;;15.80;99.00;;;;;;5070349;28;20472;-67
2022/10/06 00:03:22;;;;;;;7.33;1.60;;;15.80;98.90;;;;;;5068753;28;20457;-67
2022/10/06 00:05:49;;;;;;;3.37;1.13;;;15.80;98.90;;;;;;5067406;28;20479;-65
2022/10/06 00:08:15;;;;;;;3.87;1.03;;;15.90;99.10;;;;;;5066053;28;20440;-65
2022/10/06 00:10:42;;;;;;;4.30;1.23;;;15.90;99.00;;;;;;5065790;28;20862;-66
2022/10/06 00:13:09;;;;;;;2.00;0.97;;;16.00;99.20;;;;;;5065924;28;20463;-66
2022/10/06 00:15:36;;;;;;;1.03;0.90;;;16.00;99.10;;;;;;5065745;28;20460;-66
2022/10/06 00:18:03;;;;;;;2.80;1.07;;;16.10;99.20;;;;;;5066550;28;20484;-66
2022/10/06 00:20:31;;;;;;;5.40;1.10;;;16.10;99.20;;;;;;5066304;28;20472;-67
2022/10/06 00:22:58;;;;;;;3.63;1.20;;;16.20;98.80;;;;;;5066660;28;20969;-67
2022/10/06 00:25:27;;;;;;;3.23;1.20;;;16.20;98.70;;;;;;5065980;28;20444;-66
2022/10/06 00:27:54;;;;;;;3.50;0.93;;;16.30;98.70;;;;;;5066000;28;20449;-67
2022/10/06 00:30:23;;;;;;;3.17;1.10;;;16.30;99.00;;;;;;5065827;28;20531;-67
2022/10/06 00:32:52;;;;;;;2.70;1.00;;;16.40;98.50;;;;;;5069081;28;20445;-66
2022/10/06 00:35:19;;;;;;;1.90;0.80;;;16.40;98.30;;;;;;5066351;28;20822;-66
2022/10/06 00:37:47;;;;;;;1.70;0.90;;;16.40;98.10;;;;;;5065801;28;20516;-66
2022/10/06 00:40:13;;;;;;;3.00;1.27;;;16.50;97.80;;;;;;5066356;28;20469;-66
2022/10/06 00:42:52;;;;;;;6.00;1.07;;;16.50;97.60;;;;;;5066400;28;20441;-66
2022/10/06 00:45:23;;;;;;;2.97;1.00;;;16.60;97.30;;;;;;5066615;28;20460;-66
2022/10/06 00:47:50;;;;;;;2.07;1.23;;;16.60;97.10;;;;;;5066384;28;20445;-66
2022/10/06 00:50:18;;;;;;;8.07;1.23;;;16.60;96.70;;;;;;5066269;28;20465;-66
2022/10/06 00:52:46;;;;;;;5.37;1.40;;;16.60;96.50;;;;;;5065965;28;20452;-66
2022/10/06 00:55:14;;;;;;;3.97;1.20;;;16.60;96.40;;;;;;5065513;28;20465;-66
2022/10/06 00:57:41;;;;;;;5.80;1.00;;;16.60;96.20;;;;;;5066659;28;20453;-67
2022/10/06 01:00:09;;;;;;;2.70;1.23;;;16.50;95.80;;;;;;5066519;28;20470;-67
2022/10/06 01:02:41;;;;;;;2.23;0.90;;;16.40;95.90;;;;;;5066174;28;20454;-67
2022/10/06 01:05:11;;;;;;;8.40;2.03;;;16.40;96.00;;;;;;5065589;28;20451;-65
2022/10/06 01:07:38;;;;;;;9.00;1.60;;;16.30;96.20;;;;;;5065344;28;20454;-65
2022/10/06 01:10:06;;;;;;;5.60;1.37;;;16.20;96.50;;;;;;5064932;28;20491;-67
2022/10/06 01:12:34;;;;;;;7.40;1.50;;;16.10;96.70;;;;;;5065743;28;20457;-66
2022/10/06 01:15:04;;;;;;;6.17;1.83;;;16.00;96.90;;;;;;5065459;28;20449;-65
2022/10/06 01:17:36;;;;;;;4.40;1.27;;;16.00;97.10;;;;;;5066511;28;20887;-66
2022/10/06 01:20:07;;;;;;;4.80;1.40;;;15.90;97.00;;;;;;5065977;28;20473;-66
2022/10/06 01:22:38;;;;;;;3.43;1.60;;;15.90;97.00;;;;;;5065878;28;20437;-66
2022/10/06 01:25:07;;;;;;;4.80;1.80;;;15.90;97.10;;;;;;5065888;28;20446;-66
2022/10/06 01:27:36;;;;;;;6.37;1.87;;;15.80;97.00;;;;;;5067189;28;20453;-66
2022/10/06 01:30:05;;;;;;;7.33;1.80;;;15.80;97.20;;;;;;5066743;28;20477;-65
2022/10/06 01:32:34;;;;;;;3.97;1.27;;;15.80;97.60;;;;;;5066338;28;20444;-65
2022/10/06 01:35:01;;;;;;;4.10;1.20;;;15.80;97.60;;;;;;5065469;28;20456;-67
2022/10/06 01:37:28;;;;;;;3.40;1.60;;;15.70;97.80;;;;;;5065061;28;20453;-66
2022/10/06 01:39:56;;;;;;;10.57;1.77;;;15.70;97.80;;;;;;5065205;28;20496;-67
2022/10/06 01:42:23;;;;;;;3.33;1.10;;;15.70;97.70;;;;;;5065195;28;20456;-67
2022/10/06 01:44:49;;;;;;;3.73;1.60;;;15.60;97.70;;;;;;5065162;28;20446;-66
2022/10/06 01:47:16;;;;;;;5.70;2.00;;;15.60;97.70;;;;;;5064817;28;20449;-65
2022/10/06 01:49:43;;;;;;;4.77;1.60;;;15.70;97.70;;;;;;5064927;28;20472;-65
2022/10/06 01:52:10;;;;;;;5.10;1.70;;;15.60;97.50;;;;;;5064688;28;20459;-65
2022/10/06 01:54:36;;;;;;;11.57;1.90;;;15.50;97.60;;;;;;5064793;28;20445;-65
2022/10/06 01:57:07;;;;;;;3.80;1.27;;;15.50;97.50;;;;;;5065707;28;20449;-65
2022/10/06 01:59:34;;;;;;;7.73;1.83;;;15.40;97.40;;;;;;5065504;28;20496;-65
2022/10/06 02:02:01;;;;;;;7.83;1.97;;;15.40;97.40;;;;;;5065319;28;20451;-67
2022/10/06 02:04:27;;;;;;;4.70;1.70;;;15.30;97.20;;;;;;5065727;28;20456;-65
2022/10/06 02:06:55;;;;;;;7.70;1.73;;;15.30;97.20;;;;;;5064546;28;20449;-67
2022/10/06 02:09:22;;;;;;;3.37;1.47;;;15.30;97.10;;;;;;5064656;28;20479;-65
2022/10/06 02:11:48;;;;;;;6.97;1.77;;;15.30;96.80;;;;;;5065708;28;20437;-65
2022/10/06 02:14:16;;;;;;;11.70;1.97;;;15.30;96.80;;;;;;5064830;28;20456;-65
2022/10/06 02:16:43;;;;;;;4.83;1.40;;;15.20;96.80;;;;;;5064584;28;20530;-67
2022/10/06 02:19:10;;;;;;;8.00;1.33;;;15.20;96.90;;;;;;5065903;28;20488;-66
2022/10/06 02:21:37;;;;;;;3.77;1.70;;;15.20;97.10;;;;;;5069959;28;20456;-67
2022/10/06 02:24:04;;;;;;;6.20;1.30;;;15.10;96.90;;;;;;5069394;28;20475;-67
2022/10/06 02:26:31;;;;;;;4.53;1.50;;;15.10;96.90;;;;;;5069265;28;20454;-65
2022/10/06 02:28:58;;;;;;;13.80;1.67;;;15.10;96.90;;;;;;5069530;28;20813;-65
2022/10/06 02:31:26;;;;;;;8.87;1.80;;;15.10;96.60;;;;;;5070053;28;20463;-66
2022/10/06 02:33:53;;;;;;;11.47;2.63;;;15.10;96.60;;;;;;5068746;28;20461;-66
2022/10/06 02:36:21;;;;;;;5.13;1.67;;;15.00;96.60;;;;;;5069213;28;20445;-66
2022/10/06 02:38:48;;;;;;;4.80;1.60;;;15.00;96.80;;;;;;5068953;28;20498;-65
2022/10/06 02:41:14;;;;;;;11.63;2.17;;;15.00;96.80;;;;;;5069371;28;20449;-66
2022/10/06 02:43:41;;;;;;;5.23;1.77;;;15.00;97.00;;;;;;5068886;28;20452;-67
2022/10/06 02:46:11;;;;;;;9.37;2.00;;;15.00;97.00;;;;;;5068893;28;20828;-67
2022/10/06 02:48:39;;;;;;;5.63;1.83;;;14.90;97.20;;;;;;5068987;28;20448;-66
2022/10/06 02:51:08;;;;;;;3.67;1.77;;;14.90;97.40;;;;;;5068869;28;20458;-66
2022/10/06 02:53:35;;;;;;;9.70;2.03;;;14.90;97.50;;;;;;5069017;28;20449;-67
2022/10/06 02:56:05;;;;;;;6.13;2.23;;;14.90;97.50;;;;;;5068697;28;20460;-65
2022/10/06 02:58:32;;;;;;;8.60;1.80;;;14.90;97.40;;;;;;5070245;28;20540;-66
2022/10/06 03:01:03;;;;;;;7.27;2.00;;;14.80;97.40;;;;;;5068761;28;20479;-66
2022/10/06 03:03:31;;;;;;;7.70;1.90;;;14.80;97.40;;;;;;5068584;28;20451;-66
2022/10/06 03:06:04;;;;;;;5.93;1.50;;;14.70;97.70;;;;;;5067380;28;20455;-66
2022/10/06 03:08:31;;;;;;;6.40;2.03;;;14.80;97.20;;;;;;5068224;28;20428;-65
2022/10/06 03:11:02;;;;;;;5.90;1.47;;;14.70;97.20;;;;;;5067839;28;20488;-66
2022/10/06 03:13:29;;;;;;;8.63;1.83;;;14.70;97.20;;;;;;5067623;28;20485;-66
2022/10/06 03:15:56;;;;;;;9.10;2.10;;;14.60;96.90;;;;;;5066854;28;20447;-65
2022/10/06 03:18:23;;;;;;;10.47;1.50;;;14.60;96.80;;;;;;5066908;28;20455;-66
2022/10/06 03:20:50;;;;;;;4.70;1.40;;;14.60;96.70;;;;;;5066957;28;20468;-66
2022/10/06 03:23:18;;;;;;;9.07;2.30;;;14.50;96.60;;;;;;5067269;28;20816;-66
2022/10/06 03:25:55;;;;;;;10.07;1.97;;;14.50;96.60;;;;;;5069149;28;20522;-65
2022/10/06 03:28:21;;;;;;;4.23;1.30;;;14.50;96.50;;;;;;5072088;28;20433;-65
2022/10/06 03:30:48;;;;;;;7.53;2.30;;;14.50;96.50;;;;;;5069302;28;20823;-65
2022/10/06 03:33:15;;;;;;;9.20;1.70;;;14.40;96.30;;;;;;5067740;28;20800;-66
2022/10/06 03:35:42;;;;;;;9.03;1.73;;;14.40;96.60;;;;;;5066827;28;20445;-65
2022/10/06 03:38:08;;;;;;;6.97;1.67;;;14.30;96.20;;;;;;5066289;28;20450;-65
2022/10/06 03:40:36;;;;;;;5.77;1.83;;;14.30;96.30;;;;;;5065370;28;20483;-65
2022/10/06 03:43:03;;;;;;;13.53;2.40;;;14.30;96.10;;;;;;5066036;28;20468;-66
2022/10/06 03:45:30;;;;;;;8.50;2.03;;;14.30;96.00;;;;;;5066858;28;20458;-66
2022/10/06 03:47:58;;;;;;;8.03;1.77;;;14.30;96.00;;;;;;5066791;28;20450;-65
2022/10/06 03:50:24;;;;;;;4.20;1.57;;;14.30;95.80;;;;;;5068153;28;20455;-65
2022/10/06 03:52:51;;;;;;;6.17;1.40;;;14.20;95.70;;;;;;5066270;28;20449;-65
2022/10/06 03:55:18;;;;;;;7.80;2.07;;;14.20;95.60;;;;;;5066175;28;20456;-65
2022/10/06 03:57:46;;;;;;;6.83;1.77;;;14.10;95.50;;;;;;5065823;28;20441;-65
2022/10/06 04:00:14;;;;;;;8.77;2.30;;;14.10;95.50;;;;;;5065345;28;20884;-66
2022/10/06 04:02:40;;;;;;;7.83;1.83;;;14.10;95.50;;;;;;5067138;28;20823;-66
2022/10/06 04:05:08;;;;;;;5.70;1.43;;;14.00;95.60;;;;;;5067109;28;20451;-66
2022/10/06 04:07:35;;;;;;;10.07;1.90;;;14.00;95.50;;;;;;5065956;28;20967;-66
2022/10/06 04:10:01;;;;;;;6.33;1.87;;;14.00;95.30;;;;;;5066300;28;20484;-67
2022/10/06 04:12:28;;;;;;;8.27;1.77;;;13.90;95.10;;;;;;5065536;28;20456;-67
2022/10/06 04:14:56;;;;;;;9.73;2.27;;;13.90;95.20;;;;;;5065368;28;20455;-67
2022/10/06 04:17:23;;;;;;;10.13;2.00;;;13.90;94.90;;;;;;5064692;28;20482;-66
2022/10/06 04:19:50;;;;;;;10.03;2.10;;;13.90;94.80;;;;;;5065011;28;20494;-66
2022/10/06 04:22:17;;;;;;;5.70;1.67;;;13.80;94.50;;;;;;5067147;28;20440;-66
2022/10/06 04:24:43;;;;;;;5.63;2.00;;;13.80;94.50;;;;;;5069078;28;20475;-66
2022/10/06 04:27:29;;;;;;;10.73;2.10;;;13.80;94.40;;;;;;5067341;28;20484;-66
2022/10/06 04:29:58;;;;;;;10.60;1.43;;;13.80;94.40;;;;;;5064797;28;20478;-65
2022/10/06 04:32:24;;;;;;;12.53;2.80;;;13.80;94.20;;;;;;5064447;28;20455;-66
2022/10/06 04:34:51;;;;;;;13.40;2.30;;;13.80;94.00;;;;;;5055841;28;20432;-66
2022/10/06 04:37:18;;;;;;;12.10;1.80;;;13.70;93.90;;;;;;5055068;28;20450;-66
2022/10/06 04:39:44;;;;;;;8.63;1.80;;;13.70;93.90;;;;;;5054909;28;20874;-67
2022/10/06 04:42:11;;;;;;;9.87;2.17;;;13.70;94.10;;;;;;5055069;28;20453;-66
2022/10/06 04:44:38;;;;;;;8.13;2.87;;;13.60;94.00;;;;;;5055137;28;20440;-66
2022/10/06 04:47:06;;;;;;;14.17;2.27;;;13.60;93.90;;;;;;5054842;28;20457;-67
2022/10/06 04:49:33;;;;;;;14.07;2.90;;;13.70;93.70;;;;;;5054672;28;20471;-67
2022/10/06 04:51:59;;;;;;;14.37;3.07;;;13.70;93.90;;;;;;5055002;28;20850;-66
2022/10/06 04:54:26;;;;;;;8.83;2.67;;;13.60;93.60;;;;;;5054853;28;20452;-66
2022/10/06 04:56:53;;;;;;;7.13;1.80;;;13.70;93.40;;;;;;5054467;28;20435;-66
2022/10/06 04:59:19;;;;;;;8.37;2.27;;;13.70;93.40;;;;;;5054774;28;20495;-66
2022/10/06 05:01:46;;;;;;;13.70;2.10;;;13.70;93.30;;;;;;5054493;28;21015;-67
2022/10/06 05:04:14;;;;;;;7.80;1.93;;;13.60;93.50;;;;;;5054807;28;20548;-66
2022/10/06 05:06:42;;;;;;;8.63;2.23;;;13.60;93.50;;;;;;5054815;28;20458;-66
2022/10/06 05:09:11;;;;;;;9.83;2.80;;;13.50;93.40;;;;;;5054296;28;21023;-65
2022/10/06 05:11:37;;;;;;;8.23;2.00;;;13.50;93.40;;;;;;5054239;28;20462;-65
2022/10/06 05:14:05;;;;;;;18.10;2.47;;;13.40;93.80;;;;;;5054278;28;20902;-65
2022/10/06 05:16:32;;;;;;;17.67;2.97;;;13.40;94.00;;;;;;5054246;28;20531;-65
2022/10/06 05:18:59;;;;;;;5.70;2.20;;;13.40;94.00;;;;;;5054046;28;20491;-65
2022/10/06 05:21:29;;;;;;;14.80;2.90;;;13.40;94.00;;;;;;5054142;28;20460;-65
2022/10/06 05:23:56;;;;;;;12.93;2.83;;;13.40;93.90;;;;;;5054487;28;20431;-65
2022/10/06 05:26:25;;;;;;;11.10;2.73;;;13.40;94.00;;;;;;5054115;28;20454;-65
2022/10/06 05:28:52;;;;;;;9.30;2.27;;;13.40;93.90;;;;;;5054005;28;20500;-65
2022/10/06 05:31:21;;;;;;;10.23;2.17;;;13.40;93.90;;;;;;5054112;28;20452;-65
2022/10/06 05:33:48;;;;;;;16.77;2.67;;;13.30;93.80;;;;;;5054112;28;20464;-65
2022/10/06 05:36:17;;;;;;;13.03;2.83;;;13.40;93.80;;;;;;5054201;28;20448;-64
2022/10/06 05:38:45;;;;;;;13.73;2.83;;;13.40;93.60;;;;;;5054152;28;20460;-65
2022/10/06 05:41:14;;;;;;;10.13;2.40;;;13.40;93.50;;;;;;5054654;28;20806;-65
2022/10/06 05:43:42;;;;;;;8.17;1.97;;;13.40;93.60;;;;;;5053888;28;20446;-65
2022/10/06 05:46:16;;;;;;;8.03;2.90;;;13.40;93.60;;;;;;5053823;28;20471;-65
2022/10/06 05:48:44;;;;;;;8.67;2.27;;;13.30;93.80;;;;;;5053664;28;20815;-65
2022/10/06 05:51:11;;;;;;;12.17;3.50;;;13.30;93.70;;;;;;5053821;28;20454;-65
2022/10/06 05:53:38;;;;;;;7.93;2.03;;;13.30;93.70;;;;;;5053728;28;20470;-65
2022/10/06 05:56:08;;;;;;;12.50;2.77;;;13.30;93.80;;;;;;5053907;28;20845;-65
2022/10/06 05:58:36;;;;;;;13.87;2.60;;;13.30;93.60;;;;;;5053714;28;20449;-65
2022/10/06 06:01:07;;;;;;;10.63;2.23;;;13.30;93.70;;;;;;5054162;28;20484;-65
2022/10/06 06:03:34;;;;;;;11.57;2.90;;;13.30;93.70;;;;;;5053915;28;20457;-65
2022/10/06 06:06:00;;;;;;;6.37;1.90;;;13.20;93.70;;;;;;5054021;28;20826;-65
2022/10/06 06:08:27;;;;;;;11.73;2.77;;;13.20;93.70;;;;;;5053935;28;20448;-65
2022/10/06 06:10:54;;;;;;;7.17;2.07;;;13.20;93.80;;;;;;5053504;28;20476;-65
2022/10/06 06:13:23;;;;;;;10.47;2.43;;;13.20;94.10;;;;;;5053314;28;20455;-65
2022/10/06 06:16:01;;;;;;;11.40;2.57;;;13.20;93.80;;;;;;5053304;28;20454;-65
2022/10/06 06:18:28;;;;;;;10.17;3.20;;;13.20;93.70;;;;;;5054316;28;20899;-65
2022/10/06 06:20:56;;;;;;;12.83;2.93;;;13.20;93.70;;;;;;5053971;28;20501;-65
2022/10/06 06:23:22;;;;;;;17.23;2.90;;;13.20;93.70;;;;;;5054150;28;20469;-65
2022/10/06 06:25:57;;;;;;;16.13;2.90;;;13.30;93.60;;;;;;5054072;28;20451;-65
2022/10/06 06:28:25;;;;;;;9.17;2.50;;;13.30;93.60;;;;;;5054687;28;20452;-66
2022/10/06 06:30:59;;;;;;;10.90;2.60;;;13.30;93.60;;;;;;5054411;28;20512;-66
2022/10/06 06:33:25;;;;;;;11.03;2.43;;;13.30;93.30;;;;;;5054442;28;20482;-66
2022/10/06 06:35:52;;;;;;;13.20;2.80;;;13.30;93.40;;;;;;5054479;28;20429;-66
2022/10/06 06:38:19;;;;;;;14.90;2.63;;;13.30;93.50;;;;;;5054861;28;20480;-66
2022/10/06 06:40:46;;;;;;;9.07;2.40;;;13.30;93.50;;;;;;5054819;28;20492;-66
2022/10/06 06:43:13;;;;;;;16.17;2.77;;;13.30;93.40;;;;;;5055311;28;20477;-65
2022/10/06 06:45:41;;;;;;;14.33;3.10;;;13.30;93.50;;;;;;5055940;28;20454;-65
2022/10/06 06:48:13;;;;;;;12.53;2.40;;;13.30;93.60;;;;;;5055855;28;20457;-65
2022/10/06 06:50:40;;;;;;;12.40;3.07;;;13.30;93.50;;;;;;5055621;28;20475;-66
2022/10/06 06:53:06;;;;;;;6.50;1.93;;;13.40;93.40;;;;;;5055889;28;20455;-65
2022/10/06 06:55:33;;;;;;;8.70;2.20;;;13.40;93.20;;;;;;5055813;28;20452;-66
2022/10/06 06:58:00;;;;;;;17.47;3.00;;;13.40;93.40;;;;;;5056658;28;20448;-66
2022/10/06 07:00:27;;;;;;;14.07;2.83;;;13.40;93.20;;;;;;5055671;28;20489;-65
2022/10/06 07:02:59;;;;;;;16.00;2.63;;;13.50;93.20;;;;;;5055734;28;20449;-65
2022/10/06 07:05:26;;;;;;;15.60;3.00;;;13.50;92.80;;;;;;5056782;28;20520;-65
2022/10/06 07:07:53;;;;;;;12.50;2.30;;;13.60;92.50;;;;;;5060029;28;20451;-66
2022/10/06 07:10:19;;;;;;;9.80;2.30;;;13.60;92.70;;;;;;5061319;28;20484;-66
2022/10/06 07:12:46;;;;;;;22.03;3.77;;;13.60;92.90;;;;;;5061061;28;20485;-66
2022/10/06 07:26:20;;;;;;;15.80;3.90;;;13.70;92.80;;;;;;5042031;28;20544;-65
2022/10/06 07:28:48;;;;;;;13.97;2.53;;;13.70;92.30;;;;;;5074093;28;20421;-66
2022/10/06 07:31:17;;;;;;;15.70;3.07;;;13.80;92.20;;;;;;5074165;28;20494;-65
2022/10/06 07:33:45;;;;;;;14.00;2.93;;;13.80;92.30;;;;;;5075478;28;21001;-66
2022/10/06 07:36:12;;;;;;;8.27;2.07;;;13.80;92.30;;;;;;5075379;28;20445;-65
2022/10/06 07:38:40;;;;;;;9.40;2.53;;;13.80;92.50;;;;;;5075258;28;20505;-66
2022/10/06 07:41:07;;;;;;;9.60;3.33;;;13.80;92.50;;;;;;5075741;28;20486;-65
2022/10/06 07:43:33;;;;;;;22.03;2.67;;;13.80;92.40;;;;;;5076113;28;20435;-66
2022/10/06 07:46:00;;;;;;;14.43;2.60;;;13.90;92.60;;;;;;5075482;28;20859;-66
2022/10/06 07:48:27;;;;;;;10.60;2.87;;;13.90;92.40;;;;;;5076287;28;20431;-65
2022/10/06 07:50:55;;;;;;;9.77;2.43;;;14.00;92.50;;;;;;5080132;28;20473;-66
2022/10/06 07:53:26;;;;;;;10.40;2.37;;;14.00;92.60;;;;;;5076291;28;20444;-66
2022/10/06 07:55:53;;;;;;;12.97;3.00;;;14.10;92.50;;;;;;5074562;28;20442;-65
2022/10/06 07:58:22;;;;;;;15.80;3.03;;;14.10;92.40;;;;;;5075255;28;20425;-65
2022/10/06 08:00:51;;;;;;;11.43;3.13;;;14.20;92.50;;;;;;5075380;28;20506;-66
2022/10/06 08:03:19;;;;;;;15.10;2.87;;;14.20;92.20;;;;;;5073470;28;20449;-66
2022/10/06 08:05:46;;;;;;;16.97;2.93;;;14.30;92.10;;;;;;5071654;28;20456;-65
2022/10/06 08:08:15;;;;;;;21.30;3.93;;;14.30;92.10;;;;;;5070526;28;20445;-65
2022/10/06 08:10:42;;;;;;;10.10;2.57;;;14.30;91.90;;;;;;5055831;28;20483;-65
2022/10/06 08:13:09;;;;;;;13.50;2.73;;;14.40;92.20;;;;;;5056166;28;20462;-66
2022/10/06 08:15:37;;;;;;;16.07;3.23;;;14.40;92.50;;;;;;5056355;28;20488;-66
2022/10/06 08:18:04;;;;;;;10.47;2.70;;;14.50;92.00;;;;;;5054439;28;20825;-66
2022/10/06 08:20:31;;;;;;;15.97;2.87;;;14.50;92.20;;;;;;5054836;28;20997;-65
2022/10/06 08:22:57;;;;;;;9.70;2.33;;;14.60;91.90;;;;;;5055191;28;20478;-65
2022/10/06 08:25:25;;;;;;;12.53;3.00;;;14.70;92.10;;;;;;5054989;28;20945;-66
2022/10/06 08:27:52;;;;;;;14.30;4.50;;;14.70;91.70;;;;;;5054887;28;20538;-65
2022/10/06 08:30:19;;;;;;;8.17;2.40;;;14.70;91.20;;;;;;5054693;28;20469;-65
2022/10/06 08:32:46;;;;;;;13.40;2.53;;;14.80;91.30;;;;;;5055044;28;20465;-65
2022/10/06 08:35:13;;;;;;;11.60;2.93;;;14.80;91.20;;;;;;5055020;28;20552;-66
2022/10/06 08:37:40;;;;;;;9.63;2.83;;;14.90;90.80;;;;;;5054963;28;20452;-66
2022/10/06 08:40:09;;;;;;;15.93;2.20;;;15.00;90.90;;;;;;5054699;28;20530;-66
2022/10/06 08:42:41;;;;;;;11.37;2.60;;;15.00;90.40;;;;;;5054882;28;20437;-66
2022/10/06 08:45:16;;;;;;;14.47;2.87;;;15.10;90.40;;;;;;5054460;28;20464;-66
2022/10/06 08:47:52;;;;;;;12.93;2.70;;;15.20;91.00;;;;;;5054825;28;20433;-66
2022/10/06 08:50:20;;;;;;;14.27;2.80;;;15.20;90.70;;;;;;5054745;28;20803;-66
2022/10/06 08:52:55;;;;;;;11.87;2.70;;;15.30;90.10;;;;;;5054823;28;20448;-66
2022/10/06 08:55:34;;;;;;;10.93;2.57;;;15.40;88.30;;;;;;5054599;28;20442;-66
2022/10/06 08:58:18;;;;;;;15.07;2.90;;;15.50;88.60;;;;;;5054686;28;20441;-66
2022/10/06 09:00:45;;;;;;;17.60;2.80;;;15.50;89.20;;;;;;5054808;28;20488;-66
2022/10/06 09:03:22;;;;;;;8.13;2.80;;;15.60;90.00;;;;;;5054274;28;20460;-66
2022/10/06 09:05:52;;;;;;;15.97;2.77;;;15.70;90.30;;;;;;5054526;28;20483;-66
2022/10/06 09:08:34;;;;;;;10.13;2.70;;;15.80;88.00;;;;;;5054376;28;20437;-66
2022/10/06 09:11:08;;;;;;;14.50;2.50;;;15.90;86.50;;;;;;5054140;28;20488;-66
2022/10/06 09:13:41;;;;;;;12.33;2.20;;;15.90;87.50;;;;;;5054876;28;20442;-66
2022/10/06 09:16:13;;;;;;;8.50;2.60;;;16.00;88.00;;;;;;5054402;28;20449;-66
2022/10/06 09:18:45;;;;;;;11.30;2.60;;;16.00;87.50;;;;;;5054330;28;20451;-66
2022/10/06 09:21:15;;;;;;;9.03;2.47;;;16.20;87.50;;;;;;5054355;28;20465;-66
2022/10/06 09:23:48;;;;;;;9.20;2.43;;;16.20;85.20;;;;;;5053899;28;20434;-66
2022/10/06 09:26:17;;;;;;;10.43;2.50;;;16.30;86.40;;;;;;5054172;28;20433;-66
2022/10/06 09:28:46;;;;;;;7.67;2.10;;;16.30;85.20;;;;;;5053633;28;20456;-67
2022/10/06 09:31:22;;;;;;;12.80;3.60;;;16.40;85.00;;;;;;5054267;28;20481;-66
2022/10/06 09:33:52;;;;;;;9.80;2.70;;;16.40;83.80;;;;;;5053844;28;20486;-66
2022/10/06 09:36:19;;;;;;;10.03;2.60;;;16.50;83.90;;;;;;5053887;28;20540;-66
2022/10/06 09:38:51;;;;;;;13.50;2.77;;;16.60;84.40;;;;;;5053627;28;20966;-66
2022/10/06 09:41:18;;;;;;;8.17;2.33;;;16.60;81.40;;;;;;5053506;28;20476;-66
2022/10/06 09:43:54;;;;;;;7.93;2.10;;;16.70;79.70;;;;;;5055090;28;20464;-66
2022/10/06 09:46:31;;;;;;;8.07;2.50;;;16.80;79.20;;;;;;5060184;28;20988;-66
2022/10/06 09:49:16;;;;;;;8.00;1.87;;;16.90;77.20;;;;;;5073018;28;20436;-67
2022/10/06 09:51:59;;;;;;;6.20;1.73;;;17.10;77.50;;;;;;5074659;28;20474;-66
2022/10/06 09:54:27;;;;;;;6.37;1.93;;;17.20;73.30;;;;;;5059414;28;20807;-67
2022/10/06 09:56:55;;;;;;;10.73;2.73;;;17.40;70.30;;;;;;5066331;28;20451;-66
2022/10/06 09:59:30;;;;;;;8.80;2.13;;;17.50;69.60;;;;;;5065540;28;20508;-66
2022/10/06 10:01:58;;;;;;;11.87;2.60;;;17.70;71.20;;;;;;5052096;28;20465;-66
2022/10/06 10:04:29;;;;;;;7.37;1.90;;;17.90;70.20;;;;;;5056527;28;20833;-67
2022/10/06 10:07:13;;;;;;;8.30;2.03;;;18.20;69.10;;;;;;5055889;28;20496;-66
2022/10/06 10:09:41;;;;;;;5.93;1.70;;;18.50;68.10;;;;;;5057214;28;20529;-67
2022/10/06 10:12:28;;;;;;;7.93;3.03;;;18.90;65.80;;;;;;5054667;28;20482;-67
2022/10/06 10:15:00;;;;;;;8.87;2.53;;;19.20;61.90;;;;;;5054915;28;20458;-67
2022/10/06 10:17:39;;;;;;;6.00;2.00;;;19.60;59.70;;;;;;5055383;28;20580;-66
2022/10/06 10:20:22;;;;;;;6.40;1.70;;;19.70;57.70;;;;;;5057281;28;20485;-67
2022/10/06 10:22:49;;;;;;;8.10;1.97;;;19.90;57.60;;;;;;5051886;28;20489;-67
2022/10/06 10:25:28;;;;;;;9.97;2.87;;;20.30;57.00;;;;;;5067517;28;20474;-67
2022/10/06 10:28:00;;;;;;;9.43;2.50;;;20.60;56.30;;;;;;5056558;28;20471;-67
2022/10/06 10:30:31;;;;;;;8.97;2.07;;;21.00;54.50;;;;;;5065189;28;20606;-67
2022/10/06 10:33:04;;;;;;;11.87;1.97;;;21.40;54.00;;;;;;5055768;28;20819;-67
2022/10/06 10:35:36;;;;;;;4.53;2.00;;;21.80;51.20;;;;;;5066860;28;20497;-67
2022/10/06 10:38:07;;;;;;;6.07;1.90;;;22.20;51.20;;;;;;5071759;28;20548;-67
2022/10/06 10:40:38;;;;;;;7.13;1.77;;;22.40;48.40;;;;;;5064888;28;20497;-67
2022/10/06 10:43:18;;;;;;;6.43;1.93;;;22.70;48.00;;;;;;5067552;28;20460;-67
2022/10/06 10:45:50;;;;;;;6.60;1.97;;;23.00;47.80;;;;;;5072058;28;20456;-67
2022/10/06 10:48:22;;;;;;;8.40;2.10;;;23.30;45.20;;;;;;5061119;28;20540;-67
2022/10/06 10:50:58;;;;;;;4.90;1.73;;;23.70;45.40;;;;;;5068841;28;20481;-67
2022/10/06 10:53:33;;;;;;;5.17;1.50;;;24.20;43.80;;;;;;5059468;28;20465;-67
2022/10/06 10:56:02;;;;;;;8.40;2.40;;;24.50;42.50;;;;;;5064731;28;20465;-67
2022/10/06 10:58:33;;;;;;;8.87;2.20;;;24.80;42.50;;;;;;5064963;28;20484;-67
2022/10/06 11:01:12;;;;;;;7.00;2.23;;;25.00;41.90;;;;;;5069771;28;20895;-67
2022/10/06 11:03:38;;;;;;;10.67;2.70;;;25.10;41.50;;;;;;5061568;28;20452;-67
2022/10/06 11:06:29;;;;;;;8.00;2.27;;;25.10;40.80;;;;;;5069222;28;20468;-68
2022/10/06 11:09:02;;;;;;;5.23;1.63;;;25.20;40.70;;;;;;5075828;28;20461;-67
2022/10/06 11:11:42;;;;;;;5.37;1.70;;;25.40;39.60;;;;;;5069315;28;20500;-66
2022/10/06 11:14:20;;;;;;;5.80;2.00;;;25.90;39.20;;;;;;5055284;28;20472;-65
2022/10/06 11:16:55;;;;;;;6.27;1.90;;;26.40;38.90;;;;;;5073447;28;20454;-65
2022/10/06 11:19:29;;;;;;;6.07;1.53;;;26.70;38.00;;;;;;5076558;28;20833;-67
2022/10/06 11:22:02;;;;;;;5.90;1.93;;;27.10;38.40;;;;;;5076296;28;20473;-66
2022/10/06 11:24:36;;;;;;;6.00;2.43;;;27.40;36.90;;;;;;5076851;28;20437;-65
2022/10/06 11:27:25;;;;;;;5.73;1.50;;;27.60;36.10;;;;;;5076582;28;20441;-65
2022/10/06 11:30:12;;;;;;;6.03;2.00;;;27.80;35.20;;;;;;5073892;28;20489;-67
2022/10/06 11:32:49;;;;;;;5.60;1.80;;;28.00;35.00;;;;;;5075116;28;20433;-68
2022/10/06 11:35:19;;;;;;;6.10;2.20;;;28.20;33.60;;;;;;5053991;28;20473;-66
2022/10/06 11:37:50;;;;;;;8.63;2.00;;;28.30;33.00;;;;;;5056047;28;20476;-66
2022/10/06 11:40:40;;;;;;;7.20;2.20;;;28.30;32.40;;;;;;5055239;28;21025;-67
2022/10/06 11:43:15;;;;;;;6.53;1.90;;;28.50;32.30;;;;;;5052449;28;20457;-66
2022/10/06 11:45:50;;;;;;;6.47;1.80;;;28.70;32.90;;;;;;5068825;28;20488;-66
2022/10/06 11:48:25;;;;;;;5.40;2.10;;;28.70;31.80;;;;;;5075090;28;20460;-66
2022/10/06 11:50:54;;;;;;;5.43;1.57;;;28.70;31.40;;;;;;5065063;28;20546;-67
2022/10/06 11:53:37;;;;;;;8.13;2.37;;;28.70;31.90;;;;;;5055810;28;20446;-66
2022/10/06 11:56:38;;;;;;;6.80;1.90;;;28.40;32.10;;;;;;5059488;28;20484;-66
2022/10/06 11:59:29;;;;;;;7.53;1.93;;;28.70;31.60;;;;;;5062929;28;20493;-66
2022/10/06 12:02:00;;;;;;;9.03;2.40;;;29.00;30.90;;;;;;5073499;28;20559;-67
2022/10/06 12:04:29;;;;;;;10.23;2.07;;;29.30;30.70;;;;;;5075283;28;20531;-67
2022/10/06 12:07:03;;;;;;;7.97;2.60;;;29.60;29.80;;;;;;5071041;28;20476;-66
2022/10/06 12:09:48;;;;;;;6.00;1.97;;;30.00;29.60;;;;;;5066039;28;20476;-66
2022/10/06 12:12:52;;;;;;;7.23;1.80;;;30.50;29.30;;;;;;5074432;28;20427;-67
2022/10/06 12:16:05;;;;;;;7.60;1.80;;;30.50;28.50;;;;;;5068454;28;20461;-67
2022/10/06 12:18:40;;;;;;;3.20;1.40;;;30.60;28.00;;;;;;5075079;28;20444;-67
2022/10/06 12:21:23;;;;;;;7.93;2.00;;;30.80;27.60;;;;;;5058036;28;20965;-67
2022/10/06 12:24:02;;;;;;;5.57;1.70;;;30.50;27.60;;;;;;5063233;28;20457;-66
2022/10/06 12:26:48;;;;;;;6.40;2.00;;;30.50;28.00;;;;;;5065469;28;20456;-66
2022/10/06 12:29:42;;;;;;;6.97;2.03;;;30.70;27.30;;;;;;5075096;28;20464;-66
2022/10/06 12:32:22;;;;;;;6.20;1.93;;;30.90;28.30;;;;;;5049585;28;20471;-66
2022/10/06 12:35:02;;;;;;;8.10;2.20;;;31.10;27.60;;;;;;5055295;28;20468;-66
2022/10/06 12:37:45;;;;;;;6.77;1.90;;;31.40;27.00;;;;;;5055067;28;20441;-67
2022/10/06 12:40:47;;;;;;;6.27;1.90;;;31.60;26.30;;;;;;5058318;28;20930;-67
2022/10/06 12:43:49;;;;;;;10.80;2.00;;;31.80;25.90;;;;;;5069471;28;20484;-67
2022/10/06 12:46:40;;;;;;;3.27;1.40;;;31.70;25.00;;;;;;5053786;28;20864;-66
2022/10/06 12:49:33;;;;;;;4.63;1.60;;;31.20;25.30;;;;;;5057829;28;20880;-66
2022/10/06 12:52:09;;;;;;;6.27;1.90;;;31.30;25.90;;;;;;5068133;28;20505;-66
2022/10/06 12:54:44;;;;;;;5.60;1.73;;;31.60;25.70;;;;;;5061753;28;20518;-67
2022/10/06 12:57:18;;;;;;;2.90;1.30;;;31.80;24.90;;;;;;5054395;28;20842;-67
2022/10/06 12:59:45;;;;;;;5.43;1.93;;;32.00;25.60;;;;;;5070356;28;20515;-67
2022/10/06 13:02:18;;;;;;;4.20;2.00;;;32.20;24.90;;;;;;5068275;28;20481;-67
2022/10/06 13:04:49;;;;;;;4.80;2.00;;;31.90;24.40;;;;;;5065592;28;20837;-67
2022/10/06 13:07:19;;;;;;;3.80;1.60;;;31.70;24.50;;;;;;5074511;28;20443;-67
2022/10/06 13:09:49;;;;;;;5.53;1.60;;;31.50;25.20;;;;;;5071959;28;20487;-66
2022/10/06 13:12:28;;;;;;;3.13;1.57;;;31.40;25.30;;;;;;5053519;28;20458;-67